createdAt,value
2022-10-28T00:00:19.678Z,0.00
2022-10-28T00:01:19.726Z,0.00
2022-10-28T00:02:19.738Z,0.00
2022-10-28T00:03:19.661Z,0.00
2022-10-28T00:04:19.646Z,0.00
2022-10-28T00:05:19.600Z,0.00
2022-10-28T00:06:19.624Z,0.00
2022-10-28T00:07:19.590Z,0.00
2022-10-28T00:08:19.644Z,0.00
2022-10-28T00:09:19.589Z,0.00
2022-10-28T00:10:19.565Z,0.00
2022-10-28T00:11:19.541Z,0.00
2022-10-28T00:12:19.562Z,0.00
2022-10-28T00:13:19.569Z,0.00
2022-10-28T00:14:19.529Z,0.00
2022-10-28T00:15:19.518Z,0.00
2022-10-28T00:16:19.518Z,0.00
2022-10-28T00:17:19.527Z,0.00
2022-10-28T00:18:19.463Z,0.00
2022-10-28T00:19:19.462Z,0.00
2022-10-28T00:20:19.591Z,0.00
2022-10-28T00:21:19.488Z,0.00
2022-10-28T00:22:19.479Z,0.00
2022-10-28T00:23:19.413Z,0.00
2022-10-28T00:24:19.423Z,0.00
2022-10-28T00:25:19.381Z,0.00
2022-10-28T00:26:19.445Z,0.00
2022-10-28T00:27:19.366Z,0.00
2022-10-28T00:28:19.379Z,0.00
2022-10-28T00:29:19.358Z,0.00
2022-10-28T00:30:19.406Z,0.00
2022-10-28T00:31:19.349Z,0.00
2022-10-28T00:32:19.329Z,0.00
2022-10-28T00:33:19.304Z,0.00
2022-10-28T00:34:19.368Z,0.00
2022-10-28T00:35:19.285Z,0.00
2022-10-28T00:36:19.291Z,0.00
2022-10-28T00:37:19.254Z,0.00
2022-10-28T00:38:19.278Z,0.00
2022-10-28T00:39:19.229Z,0.00
2022-10-28T00:40:19.247Z,0.00
2022-10-28T00:41:19.232Z,0.00
2022-10-28T00:42:19.234Z,0.00
2022-10-28T00:43:19.265Z,0.00
2022-10-28T00:44:19.202Z,0.00
2022-10-28T00:45:19.202Z,0.00
2022-10-28T00:46:19.224Z,0.00
2022-10-28T00:47:19.175Z,0.00
2022-10-28T00:48:19.153Z,0.00
2022-10-28T00:49:19.129Z,0.00
2022-10-28T00:50:19.127Z,0.00
2022-10-28T00:51:19.169Z,0.00
2022-10-28T00:52:19.101Z,0.00
2022-10-28T00:53:19.110Z,0.00
2022-10-28T00:54:19.125Z,0.00
2022-10-28T00:55:19.079Z,0.00
2022-10-28T00:56:19.158Z,0.00
2022-10-28T00:57:19.047Z,0.00
2022-10-28T00:58:19.048Z,0.00
2022-10-28T00:59:19.022Z,0.00
2022-10-28T01:00:19.020Z,0.00
2022-10-28T01:01:19.054Z,0.00
2022-10-28T01:02:19.110Z,0.00
2022-10-28T01:03:18.997Z,0.00
2022-10-28T01:04:18.981Z,0.00
2022-10-28T01:05:18.979Z,0.00
2022-10-28T01:06:18.970Z,0.00
2022-10-28T01:07:18.948Z,0.00
2022-10-28T01:08:18.964Z,0.00
2022-10-28T01:09:18.959Z,0.00
2022-10-28T01:10:18.925Z,0.00
2022-10-28T01:11:18.912Z,0.00
2022-10-28T01:12:18.920Z,0.00
2022-10-28T01:13:18.882Z,0.00
2022-10-28T01:14:18.872Z,0.00
2022-10-28T01:15:18.856Z,0.00
2022-10-28T01:16:18.868Z,0.00
2022-10-28T01:17:18.847Z,0.00
2022-10-28T01:18:18.899Z,0.00
2022-10-28T01:19:18.815Z,0.00
2022-10-28T01:20:18.808Z,0.00
2022-10-28T01:21:18.825Z,0.00
2022-10-28T01:22:18.864Z,0.00
2022-10-28T01:23:18.803Z,0.00
2022-10-28T01:24:18.762Z,0.00
2022-10-28T01:25:18.762Z,0.00
2022-10-28T01:26:18.766Z,0.00
2022-10-28T01:27:18.756Z,0.00
2022-10-28T01:28:18.749Z,0.00
2022-10-28T01:29:18.712Z,0.00
2022-10-28T01:30:18.761Z,0.00
2022-10-28T01:31:18.732Z,0.00
2022-10-28T01:32:18.683Z,0.00
2022-10-28T01:33:18.693Z,0.00
2022-10-28T01:34:18.653Z,0.00
2022-10-28T01:35:18.713Z,0.00
2022-10-28T01:36:18.651Z,0.00
2022-10-28T01:37:18.662Z,0.00
2022-10-28T01:38:18.608Z,0.00
2022-10-28T01:39:18.595Z,0.00
2022-10-28T01:40:18.616Z,0.00
2022-10-28T01:41:18.593Z,0.00
2022-10-28T01:42:18.568Z,0.00
2022-10-28T01:43:18.562Z,0.00
2022-10-28T01:44:18.564Z,0.00
2022-10-28T01:45:18.547Z,0.00
2022-10-28T01:46:18.586Z,0.00
2022-10-28T01:47:18.530Z,0.00
2022-10-28T01:48:18.521Z,0.00
2022-10-28T01:49:18.511Z,0.00
2022-10-28T01:50:18.522Z,0.00
2022-10-28T01:51:18.489Z,0.00
2022-10-28T01:52:18.470Z,0.00
2022-10-28T01:53:18.470Z,0.00
2022-10-28T01:54:18.442Z,0.00
2022-10-28T01:55:18.542Z,0.00
2022-10-28T01:56:18.437Z,0.00
2022-10-28T01:57:18.459Z,0.00
2022-10-28T01:58:18.441Z,0.00
2022-10-28T01:59:18.423Z,0.00
2022-10-28T02:00:18.394Z,0.00
2022-10-28T02:01:18.454Z,0.00
2022-10-28T02:02:18.367Z,0.00
2022-10-28T02:03:18.375Z,0.00
2022-10-28T02:04:18.343Z,0.00
2022-10-28T02:05:18.395Z,0.00
2022-10-28T02:06:18.394Z,0.00
2022-10-28T02:07:18.362Z,0.00
2022-10-28T02:08:18.308Z,0.00
2022-10-28T02:09:18.377Z,0.00
2022-10-28T02:10:18.280Z,0.00
2022-10-28T02:11:18.257Z,0.00
2022-10-28T02:12:18.263Z,0.00
2022-10-28T02:13:18.325Z,0.00
2022-10-28T02:14:18.237Z,0.00
2022-10-28T02:15:18.245Z,0.00
2022-10-28T02:16:18.228Z,0.00
2022-10-28T02:17:18.197Z,0.00
2022-10-28T02:18:18.195Z,0.00
2022-10-28T02:19:18.190Z,0.00
2022-10-28T02:20:18.182Z,0.00
2022-10-28T02:21:18.187Z,0.00
2022-10-28T02:22:18.132Z,0.00
2022-10-28T02:23:18.128Z,0.00
2022-10-28T02:24:18.142Z,0.00
2022-10-28T02:25:18.222Z,0.00
2022-10-28T02:26:18.093Z,0.00
2022-10-28T02:27:18.082Z,0.00
2022-10-28T02:28:18.072Z,0.00
2022-10-28T02:29:18.055Z,0.00
2022-10-28T02:30:18.059Z,0.00
2022-10-28T02:31:18.056Z,0.00
2022-10-28T02:32:18.074Z,0.00
2022-10-28T02:33:18.075Z,0.00
2022-10-28T02:34:17.999Z,0.00
2022-10-28T02:35:18.050Z,0.00
2022-10-28T02:36:17.991Z,0.00
2022-10-28T02:37:17.992Z,0.00
2022-10-28T02:38:17.984Z,0.00
2022-10-28T02:39:17.970Z,0.00
2022-10-28T02:40:17.954Z,0.00
2022-10-28T02:41:17.943Z,0.00
2022-10-28T02:42:17.912Z,0.00
2022-10-28T02:43:17.907Z,0.00
2022-10-28T02:44:17.925Z,0.00
2022-10-28T02:45:17.910Z,0.00
2022-10-28T02:46:17.922Z,0.00
2022-10-28T02:47:17.864Z,0.00
2022-10-28T02:48:17.865Z,0.00
2022-10-28T02:49:17.848Z,0.00
2022-10-28T02:50:17.878Z,0.00
2022-10-28T02:51:17.840Z,0.00
2022-10-28T02:52:17.810Z,0.00
2022-10-28T02:53:17.835Z,0.00
2022-10-28T02:54:17.789Z,0.00
2022-10-28T02:55:17.864Z,0.00
2022-10-28T02:56:17.777Z,0.00
2022-10-28T02:57:17.762Z,0.00
2022-10-28T02:58:17.762Z,0.00
2022-10-28T02:59:17.743Z,0.00
2022-10-28T03:00:17.742Z,0.00
2022-10-28T03:01:17.816Z,0.00
2022-10-28T03:02:17.726Z,0.00
2022-10-28T03:03:17.678Z,0.00
2022-10-28T03:04:17.693Z,0.00
2022-10-28T03:05:17.700Z,0.00
2022-10-28T03:06:17.710Z,0.00
2022-10-28T03:07:17.652Z,0.00
2022-10-28T03:08:17.661Z,0.00
2022-10-28T03:09:17.639Z,0.00
2022-10-28T03:10:17.645Z,0.00
2022-10-28T03:11:17.597Z,0.00
2022-10-28T03:12:17.591Z,0.00
2022-10-28T03:13:17.586Z,0.00
2022-10-28T03:14:17.582Z,0.00
2022-10-28T03:15:17.617Z,0.00
2022-10-28T03:16:17.598Z,0.00
2022-10-28T03:17:17.547Z,0.00
2022-10-28T03:18:17.534Z,0.00
2022-10-28T03:19:17.600Z,0.00
2022-10-28T03:20:17.545Z,0.00
2022-10-28T03:21:17.490Z,0.00
2022-10-28T03:22:17.524Z,0.00
2022-10-28T03:23:17.478Z,0.00
2022-10-28T03:24:17.457Z,0.00
2022-10-28T03:25:17.470Z,0.00
2022-10-28T03:26:17.464Z,0.00
2022-10-28T03:27:17.451Z,0.00
2022-10-28T03:28:17.430Z,0.00
2022-10-28T03:29:17.402Z,0.00
2022-10-28T03:30:17.430Z,0.00
2022-10-28T03:31:17.392Z,0.00
2022-10-28T03:32:17.417Z,0.00
2022-10-28T03:33:17.401Z,0.00
2022-10-28T03:34:17.373Z,0.00
2022-10-28T03:35:17.365Z,0.00
2022-10-28T03:36:17.495Z,0.00
2022-10-28T03:37:17.316Z,0.00
2022-10-28T03:38:17.318Z,0.00
2022-10-28T03:39:17.299Z,0.00
2022-10-28T03:40:17.309Z,0.00
2022-10-28T03:41:17.283Z,0.00
2022-10-28T03:42:17.288Z,0.00
2022-10-28T03:43:17.381Z,0.00
2022-10-28T03:44:17.258Z,0.00
2022-10-28T03:45:17.259Z,0.00
2022-10-28T03:46:17.273Z,0.00
2022-10-28T03:47:17.210Z,0.00
2022-10-28T03:48:17.213Z,0.00
2022-10-28T03:49:17.224Z,0.00
2022-10-28T03:50:17.191Z,0.00
2022-10-28T03:51:17.184Z,0.00
2022-10-28T03:52:17.173Z,0.00
2022-10-28T03:53:17.140Z,0.00
2022-10-28T03:54:17.261Z,0.00
2022-10-28T03:55:17.145Z,0.00
2022-10-28T03:56:17.134Z,0.00
2022-10-28T03:57:17.090Z,0.00
2022-10-28T03:58:17.088Z,0.00
2022-10-28T03:59:19.373Z,0.00
2022-10-28T04:00:17.431Z,0.00
2022-10-28T04:01:17.162Z,0.00
2022-10-28T04:02:17.272Z,0.00
2022-10-28T04:03:17.110Z,0.00
2022-10-28T04:04:17.120Z,0.00
2022-10-28T04:05:17.064Z,0.00
2022-10-28T04:06:17.084Z,0.00
2022-10-28T04:07:17.002Z,0.00
2022-10-28T04:08:17.070Z,0.00
2022-10-28T04:09:17.007Z,0.00
2022-10-28T04:10:17.066Z,0.00
2022-10-28T04:11:16.986Z,0.00
2022-10-28T04:12:17.238Z,0.00
2022-10-28T04:13:17.052Z,0.00
2022-10-28T04:14:17.006Z,0.00
2022-10-28T04:15:17.004Z,0.00
2022-10-28T04:16:17.052Z,0.00
2022-10-28T04:17:17.139Z,0.00
2022-10-28T04:18:17.015Z,0.00
2022-10-28T04:19:17.115Z,0.00
2022-10-28T04:20:17.119Z,0.00
2022-10-28T04:21:16.833Z,0.00
2022-10-28T04:22:16.824Z,0.00
2022-10-28T04:23:16.846Z,0.00
2022-10-28T04:24:16.829Z,0.00
2022-10-28T04:25:16.818Z,0.00
2022-10-28T04:26:16.773Z,0.00
2022-10-28T04:27:16.774Z,0.00
2022-10-28T04:28:16.823Z,0.00
2022-10-28T04:29:16.798Z,0.00
2022-10-28T04:30:16.770Z,0.00
2022-10-28T04:31:16.765Z,0.00
2022-10-28T04:32:16.717Z,0.00
2022-10-28T04:33:16.710Z,0.00
2022-10-28T04:34:16.690Z,0.00
2022-10-28T04:35:16.710Z,0.00
2022-10-28T04:36:16.684Z,0.00
2022-10-28T04:37:19.654Z,0.00
2022-10-28T04:38:16.791Z,0.00
2022-10-28T04:39:16.652Z,0.00
2022-10-28T04:40:16.680Z,0.00
2022-10-28T04:41:16.626Z,0.00
2022-10-28T04:42:16.622Z,0.00
2022-10-28T04:43:16.619Z,0.00
2022-10-28T04:44:16.604Z,0.00
2022-10-28T04:45:16.608Z,0.00
2022-10-28T04:46:16.565Z,0.00
2022-10-28T04:47:16.581Z,0.00
2022-10-28T04:48:16.577Z,0.00
2022-10-28T04:49:16.550Z,0.00
2022-10-28T04:50:16.511Z,0.00
2022-10-28T04:51:16.512Z,0.00
2022-10-28T04:52:16.527Z,0.00
2022-10-28T04:53:16.520Z,0.00
2022-10-28T04:54:16.486Z,0.00
2022-10-28T04:55:16.493Z,0.00
2022-10-28T04:56:16.470Z,0.00
2022-10-28T04:57:16.445Z,0.00
2022-10-28T04:58:16.429Z,0.00
2022-10-28T04:59:16.445Z,0.00
2022-10-28T05:00:16.440Z,0.00
2022-10-28T05:01:16.574Z,0.00
2022-10-28T05:02:16.526Z,0.00
2022-10-28T05:03:16.428Z,0.00
2022-10-28T05:04:16.360Z,0.00
2022-10-28T05:06:16.349Z,0.00
2022-10-28T05:07:18.685Z,0.00
2022-10-28T05:08:16.314Z,0.00
2022-10-28T05:09:16.334Z,0.00
2022-10-28T05:10:16.312Z,0.00
2022-10-28T05:11:16.330Z,0.00
2022-10-28T05:12:16.295Z,0.00
2022-10-28T05:13:16.340Z,0.00
2022-10-28T05:14:16.305Z,0.00
2022-10-28T05:15:16.257Z,0.00
2022-10-28T05:16:16.245Z,0.00
2022-10-28T05:17:16.266Z,0.00
2022-10-28T05:18:16.202Z,0.00
2022-10-28T05:19:16.249Z,0.00
2022-10-28T05:20:16.185Z,0.00
2022-10-28T05:21:16.176Z,0.00
2022-10-28T05:22:16.165Z,0.00
2022-10-28T05:23:16.185Z,0.00
2022-10-28T05:24:16.155Z,0.00
2022-10-28T05:25:16.183Z,0.00
2022-10-28T05:26:16.136Z,0.00
2022-10-28T05:27:16.137Z,0.00
2022-10-28T05:28:16.115Z,0.00
2022-10-28T05:29:16.153Z,0.00
2022-10-28T05:30:16.096Z,0.00
2022-10-28T05:31:16.077Z,0.00
2022-10-28T05:32:16.076Z,0.00
2022-10-28T05:33:16.070Z,0.00
2022-10-28T05:34:16.025Z,0.00
2022-10-28T05:35:16.067Z,0.00
2022-10-28T05:36:16.065Z,0.00
2022-10-28T05:37:16.017Z,0.00
2022-10-28T05:38:16.004Z,0.00
2022-10-28T05:39:15.987Z,0.00
2022-10-28T05:40:15.982Z,0.00
2022-10-28T05:41:16.017Z,0.00
2022-10-28T05:42:15.964Z,0.00
2022-10-28T05:43:15.942Z,0.00
2022-10-28T05:44:15.985Z,0.00
2022-10-28T05:45:15.970Z,0.00
2022-10-28T05:46:15.910Z,0.00
2022-10-28T05:47:15.901Z,0.00
2022-10-28T05:48:15.885Z,0.00
2022-10-28T05:49:15.889Z,0.00
2022-10-28T05:50:15.918Z,0.00
2022-10-28T05:51:15.853Z,0.00
2022-10-28T05:52:15.833Z,0.00
2022-10-28T05:53:15.839Z,0.00
2022-10-28T05:54:15.822Z,0.00
2022-10-28T05:55:15.822Z,0.00
2022-10-28T05:56:15.801Z,0.00
2022-10-28T05:57:15.786Z,0.00
2022-10-28T05:58:15.775Z,0.00
2022-10-28T05:59:15.777Z,0.00
2022-10-28T06:00:15.770Z,0.00
2022-10-28T06:01:15.820Z,0.00
2022-10-28T06:02:15.778Z,5.62
2022-10-28T06:03:15.737Z,5.62
2022-10-28T06:04:15.788Z,5.62
2022-10-28T06:05:15.706Z,5.62
2022-10-28T06:06:15.695Z,5.62
2022-10-28T06:07:15.675Z,5.62
2022-10-28T06:08:15.649Z,5.62
2022-10-28T06:09:15.699Z,5.62
2022-10-28T06:10:15.809Z,11.25
2022-10-28T06:11:14.099Z,11.25
2022-10-28T06:12:14.207Z,11.25
2022-10-28T06:13:14.095Z,11.25
2022-10-28T06:14:14.089Z,11.25
2022-10-28T06:15:14.113Z,16.88
2022-10-28T06:16:14.149Z,16.88
2022-10-28T06:17:14.033Z,16.88
2022-10-28T06:18:16.709Z,16.88
2022-10-28T06:19:14.056Z,22.50
2022-10-28T06:20:14.020Z,22.50
2022-10-28T06:21:14.007Z,22.50
2022-10-28T06:22:13.997Z,22.50
2022-10-28T06:23:13.979Z,22.50
2022-10-28T06:24:13.974Z,28.12
2022-10-28T06:25:13.993Z,28.12
2022-10-28T06:26:13.978Z,28.12
2022-10-28T06:27:13.947Z,33.75
2022-10-28T06:28:13.965Z,33.75
2022-10-28T06:29:13.923Z,39.38
2022-10-28T06:30:13.928Z,39.38
2022-10-28T06:31:13.888Z,39.38
2022-10-28T06:32:13.932Z,45.00
2022-10-28T06:33:13.890Z,50.62
2022-10-28T06:34:13.892Z,56.25
2022-10-28T06:35:13.940Z,61.88
2022-10-28T06:36:13.865Z,67.50
2022-10-28T06:37:13.860Z,73.12
2022-10-28T06:38:13.830Z,78.75
2022-10-28T06:39:13.869Z,84.38
2022-10-28T06:40:13.840Z,90.00
2022-10-28T06:41:13.791Z,95.62
2022-10-28T06:42:13.797Z,95.62
2022-10-28T06:43:13.778Z,101.25
2022-10-28T06:44:13.799Z,106.88
2022-10-28T06:45:13.752Z,106.88
2022-10-28T06:46:13.789Z,106.88
2022-10-28T06:47:15.257Z,112.50
2022-10-28T06:48:15.288Z,112.50
2022-10-28T06:49:15.241Z,118.12
2022-10-28T06:50:15.233Z,118.12
2022-10-28T06:51:15.211Z,123.75
2022-10-28T06:52:15.221Z,123.75
2022-10-28T06:53:15.231Z,123.75
2022-10-28T06:54:15.224Z,129.38
2022-10-28T06:55:15.197Z,129.38
2022-10-28T06:56:15.209Z,135.00
2022-10-28T06:57:15.143Z,135.00
2022-10-28T06:58:15.160Z,140.62
2022-10-28T06:59:15.157Z,146.25
2022-10-28T07:00:15.238Z,146.25
2022-10-28T07:01:15.222Z,146.25
2022-10-28T07:02:15.191Z,151.88
2022-10-28T07:03:15.083Z,151.88
2022-10-28T07:04:15.118Z,157.50
2022-10-28T07:05:15.092Z,157.50
2022-10-28T07:07:15.115Z,168.75
2022-10-28T07:08:15.078Z,168.75
2022-10-28T07:09:15.044Z,174.38
2022-10-28T07:10:15.042Z,180.00
2022-10-28T07:11:15.010Z,185.62
2022-10-28T07:12:15.099Z,191.25
2022-10-28T07:13:14.987Z,196.88
2022-10-28T07:14:14.989Z,202.50
2022-10-28T07:15:15.069Z,208.12
2022-10-28T07:16:14.978Z,219.38
2022-10-28T07:17:14.978Z,225.00
2022-10-28T07:18:15.141Z,225.00
2022-10-28T07:19:17.889Z,230.62
2022-10-28T07:20:14.970Z,230.62
2022-10-28T07:21:14.933Z,241.88
2022-10-28T07:22:15.438Z,236.25
2022-10-28T07:23:14.903Z,230.62
2022-10-28T07:24:14.905Z,225.00
2022-10-28T07:25:14.958Z,219.38
2022-10-28T07:26:14.865Z,219.38
2022-10-28T07:27:14.841Z,219.38
2022-10-28T07:28:14.829Z,219.38
2022-10-28T07:29:14.830Z,219.38
2022-10-28T07:30:14.829Z,219.38
2022-10-28T07:31:14.844Z,219.38
2022-10-28T07:32:14.847Z,219.38
2022-10-28T07:33:14.809Z,219.38
2022-10-28T07:34:14.800Z,213.75
2022-10-28T07:35:14.869Z,213.75
2022-10-28T07:36:14.768Z,213.75
2022-10-28T07:37:14.798Z,208.12
2022-10-28T07:38:14.735Z,208.12
2022-10-28T07:39:14.742Z,208.12
2022-10-28T07:40:14.732Z,208.12
2022-10-28T07:41:14.706Z,213.75
2022-10-28T07:42:14.703Z,208.12
2022-10-28T07:43:14.679Z,208.12
2022-10-28T07:44:14.671Z,208.12
2022-10-28T07:45:15.117Z,213.75
2022-10-28T07:46:14.651Z,213.75
2022-10-28T07:47:14.656Z,219.38
2022-10-28T07:48:14.640Z,219.38
2022-10-28T07:49:14.643Z,219.38
2022-10-28T07:50:15.069Z,225.00
2022-10-28T07:51:14.592Z,230.62
2022-10-28T07:52:14.596Z,236.25
2022-10-28T07:54:14.618Z,241.88
2022-10-28T07:55:14.561Z,241.88
2022-10-28T07:56:14.531Z,247.50
2022-10-28T07:57:14.585Z,247.50
2022-10-28T07:58:14.529Z,247.50
2022-10-28T07:59:14.528Z,247.50
2022-10-28T08:00:14.542Z,247.50
2022-10-28T08:01:14.678Z,253.12
2022-10-28T08:02:14.551Z,253.12
2022-10-28T08:03:14.485Z,258.75
2022-10-28T08:04:14.466Z,258.75
2022-10-28T08:05:14.489Z,264.38
2022-10-28T08:06:14.426Z,270.00
2022-10-28T08:07:14.457Z,275.62
2022-10-28T08:08:14.405Z,275.62
2022-10-28T08:09:14.382Z,281.25
2022-10-28T08:10:14.399Z,286.88
2022-10-28T08:11:14.360Z,286.88
2022-10-28T08:12:14.355Z,286.88
2022-10-28T08:13:14.381Z,286.88
2022-10-28T08:14:14.374Z,286.88
2022-10-28T08:15:14.443Z,286.88
2022-10-28T08:16:14.313Z,286.88
2022-10-28T08:17:14.298Z,286.88
2022-10-28T08:18:14.279Z,292.50
2022-10-28T08:19:14.289Z,298.12
2022-10-28T08:20:14.278Z,315.00
2022-10-28T08:21:14.243Z,331.88
2022-10-28T08:22:14.209Z,343.12
2022-10-28T08:23:14.263Z,360.00
2022-10-28T08:24:14.203Z,365.62
2022-10-28T08:25:14.233Z,376.88
2022-10-28T08:26:14.161Z,382.50
2022-10-28T08:27:14.172Z,388.12
2022-10-28T08:28:14.145Z,393.75
2022-10-28T08:29:14.279Z,399.38
2022-10-28T08:30:14.160Z,410.62
2022-10-28T08:31:14.172Z,410.62
2022-10-28T08:32:14.124Z,421.88
2022-10-28T08:33:14.119Z,416.25
2022-10-28T08:34:14.186Z,405.00
2022-10-28T08:35:14.098Z,393.75
2022-10-28T08:36:14.082Z,376.88
2022-10-28T08:37:14.098Z,382.50
2022-10-28T08:38:14.049Z,405.00
2022-10-28T08:39:14.079Z,444.38
2022-10-28T08:40:14.052Z,450.00
2022-10-28T08:41:14.021Z,511.88
2022-10-28T08:42:14.022Z,523.12
2022-10-28T08:43:14.142Z,579.38
2022-10-28T08:44:14.021Z,826.88
2022-10-28T08:45:15.739Z,793.12
2022-10-28T08:46:13.979Z,680.62
2022-10-28T08:47:14.002Z,568.12
2022-10-28T08:48:13.953Z,540.00
2022-10-28T08:49:13.933Z,658.12
2022-10-28T08:50:13.923Z,708.75
2022-10-28T08:51:13.943Z,742.50
2022-10-28T08:52:13.927Z,748.12
2022-10-28T08:53:13.889Z,759.38
2022-10-28T08:54:13.895Z,776.25
2022-10-28T08:55:13.877Z,742.50
2022-10-28T08:56:13.874Z,748.12
2022-10-28T08:57:17.881Z,708.75
2022-10-28T08:58:13.824Z,680.62
2022-10-28T08:59:13.819Z,652.50
2022-10-28T09:00:13.833Z,652.50
2022-10-28T09:01:13.949Z,675.00
2022-10-28T09:02:13.807Z,708.75
2022-10-28T09:03:13.785Z,753.75
2022-10-28T09:04:13.806Z,793.12
2022-10-28T09:05:13.773Z,759.38
2022-10-28T09:06:13.836Z,736.88
2022-10-28T09:07:13.783Z,731.25
2022-10-28T09:08:13.715Z,703.12
2022-10-28T09:09:13.711Z,646.88
2022-10-28T09:10:13.713Z,618.75
2022-10-28T09:11:13.716Z,607.50
2022-10-28T09:12:13.689Z,618.75
2022-10-28T09:13:13.733Z,618.75
2022-10-28T09:14:13.667Z,607.50
2022-10-28T09:15:13.654Z,596.25
2022-10-28T09:16:15.965Z,573.75
2022-10-28T09:17:13.651Z,562.50
2022-10-28T09:18:13.619Z,562.50
2022-10-28T09:19:13.705Z,601.88
2022-10-28T09:20:13.611Z,540.00
2022-10-28T09:21:13.587Z,523.12
2022-10-28T09:22:15.293Z,528.75
2022-10-28T09:23:13.557Z,545.62
2022-10-28T09:24:13.555Z,618.75
2022-10-28T09:25:13.565Z,562.50
2022-10-28T09:26:13.555Z,556.88
2022-10-28T09:27:13.535Z,646.88
2022-10-28T09:28:13.537Z,545.62
2022-10-28T09:29:13.503Z,579.38
2022-10-28T09:30:13.513Z,556.88
2022-10-28T09:31:13.474Z,534.38
2022-10-28T09:32:13.471Z,528.75
2022-10-28T09:33:13.504Z,528.75
2022-10-28T09:34:13.446Z,540.00
2022-10-28T09:35:13.442Z,551.25
2022-10-28T09:36:13.458Z,770.62
2022-10-28T09:37:13.404Z,815.62
2022-10-28T09:38:13.475Z,1001.25
2022-10-28T09:39:13.393Z,1040.62
2022-10-28T09:40:13.419Z,1063.12
2022-10-28T09:41:13.374Z,1080.00
2022-10-28T09:42:13.418Z,1068.75
2022-10-28T09:43:13.356Z,1096.88
2022-10-28T09:44:13.367Z,1147.50
2022-10-28T09:45:13.328Z,1203.75
2022-10-28T09:46:13.313Z,1209.38
2022-10-28T09:47:13.321Z,1215.00
2022-10-28T09:48:13.347Z,1125.00
2022-10-28T09:49:13.287Z,793.12
2022-10-28T09:50:13.278Z,945.00
2022-10-28T09:51:13.262Z,680.62
2022-10-28T09:52:15.355Z,663.75
2022-10-28T09:53:13.238Z,646.88
2022-10-28T09:54:13.264Z,630.00
2022-10-28T09:55:13.267Z,607.50
2022-10-28T09:56:13.216Z,585.00
2022-10-28T09:57:16.408Z,551.25
2022-10-28T09:58:13.242Z,618.75
2022-10-28T09:59:13.184Z,489.38
2022-10-28T10:00:13.182Z,461.25
2022-10-28T10:01:13.177Z,438.75
2022-10-28T10:02:13.305Z,427.50
2022-10-28T10:03:13.132Z,421.88
2022-10-28T10:04:13.206Z,421.88
2022-10-28T10:05:16.873Z,438.75
2022-10-28T10:06:13.097Z,466.88
2022-10-28T10:07:13.158Z,489.38
2022-10-28T10:08:13.100Z,500.62
2022-10-28T10:09:13.068Z,517.50
2022-10-28T10:10:13.094Z,534.38
2022-10-28T10:11:13.070Z,556.88
2022-10-28T10:12:13.099Z,562.50
2022-10-28T10:13:13.024Z,562.50
2022-10-28T10:14:13.048Z,545.62
2022-10-28T10:15:13.012Z,534.38
2022-10-28T10:16:13.008Z,517.50
2022-10-28T10:17:12.990Z,506.25
2022-10-28T10:18:13.005Z,511.88
2022-10-28T10:19:12.996Z,528.75
2022-10-28T10:20:12.973Z,556.88
2022-10-28T10:21:12.953Z,765.00
2022-10-28T10:22:12.971Z,1175.62
2022-10-28T10:23:12.909Z,1147.50
2022-10-28T10:24:12.924Z,1181.25
2022-10-28T10:25:12.919Z,1063.12
2022-10-28T10:26:12.895Z,697.50
2022-10-28T10:27:12.894Z,658.12
2022-10-28T10:28:12.883Z,613.12
2022-10-28T10:29:12.848Z,613.12
2022-10-28T10:30:12.870Z,646.88
2022-10-28T10:31:12.831Z,765.00
2022-10-28T10:32:12.843Z,804.38
2022-10-28T10:33:12.834Z,815.62
2022-10-28T10:34:12.836Z,1153.12
2022-10-28T10:35:12.835Z,933.75
2022-10-28T10:36:12.774Z,967.50
2022-10-28T10:37:12.768Z,978.75
2022-10-28T10:38:12.765Z,894.38
2022-10-28T10:39:12.743Z,855.00
2022-10-28T10:40:12.768Z,725.62
2022-10-28T10:41:12.719Z,703.12
2022-10-28T10:42:12.749Z,652.50
2022-10-28T10:43:14.097Z,596.25
2022-10-28T10:44:12.693Z,568.12
2022-10-28T10:45:12.708Z,551.25
2022-10-28T10:46:12.687Z,545.62
2022-10-28T10:47:12.657Z,534.38
2022-10-28T10:48:12.666Z,528.75
2022-10-28T10:49:12.666Z,534.38
2022-10-28T10:50:12.656Z,545.62
2022-10-28T10:51:12.670Z,568.12
2022-10-28T10:52:12.603Z,624.38
2022-10-28T10:53:14.664Z,646.88
2022-10-28T10:54:16.775Z,770.62
2022-10-28T10:55:12.592Z,815.62
2022-10-28T10:56:12.611Z,916.88
2022-10-28T10:57:12.542Z,742.50
2022-10-28T10:58:12.571Z,742.50
2022-10-28T10:59:12.573Z,815.62
2022-10-28T11:00:12.546Z,990.00
2022-10-28T11:01:12.552Z,849.38
2022-10-28T11:02:15.702Z,742.50
2022-10-28T11:03:12.482Z,759.38
2022-10-28T11:04:12.548Z,736.88
2022-10-28T11:05:12.475Z,871.88
2022-10-28T11:06:23.166Z,1136.25
2022-10-28T11:07:13.439Z,1220.62
2022-10-28T11:08:12.471Z,1006.88
2022-10-28T11:10:12.428Z,663.75
2022-10-28T11:11:17.896Z,742.50
2022-10-28T11:12:12.383Z,759.38
2022-10-28T11:13:12.477Z,765.00
2022-10-28T11:14:12.365Z,753.75
2022-10-28T11:15:12.391Z,922.50
2022-10-28T11:16:12.391Z,984.38
2022-10-28T11:17:12.329Z,725.62
2022-10-28T11:18:12.323Z,697.50
2022-10-28T11:19:12.584Z,590.62
2022-10-28T11:20:16.618Z,573.75
2022-10-28T11:21:12.354Z,590.62
2022-10-28T11:22:12.285Z,596.25
2022-10-28T11:23:12.286Z,607.50
2022-10-28T11:24:12.295Z,613.12
2022-10-28T11:25:12.281Z,613.12
2022-10-28T11:26:12.258Z,607.50
2022-10-28T11:27:12.266Z,596.25
2022-10-28T11:28:12.576Z,573.75
2022-10-28T11:29:15.430Z,573.75
2022-10-28T11:30:12.321Z,573.75
2022-10-28T11:31:12.216Z,579.38
2022-10-28T11:32:12.174Z,562.50
2022-10-28T11:33:29.604Z,545.62
2022-10-28T11:34:13.160Z,551.25
2022-10-28T11:35:12.224Z,568.12
2022-10-28T11:36:12.154Z,562.50
2022-10-28T11:37:14.171Z,562.50
2022-10-28T11:39:20.964Z,556.88
2022-10-28T11:40:12.124Z,551.25
2022-10-28T11:41:12.077Z,556.88
2022-10-28T11:42:12.101Z,568.12
2022-10-28T11:43:12.144Z,607.50
2022-10-28T11:44:12.077Z,928.12
2022-10-28T11:45:12.077Z,900.00
2022-10-28T11:46:13.948Z,658.12
2022-10-28T11:47:13.953Z,652.50
2022-10-28T11:48:21.120Z,731.25
2022-10-28T11:49:11.993Z,675.00
2022-10-28T11:50:12.054Z,658.12
2022-10-28T11:51:11.979Z,652.50
2022-10-28T11:52:11.979Z,607.50
2022-10-28T11:53:12.052Z,596.25
2022-10-28T11:54:12.039Z,579.38
2022-10-28T11:55:12.269Z,562.50
2022-10-28T11:56:18.578Z,528.75
2022-10-28T11:57:11.911Z,511.88
2022-10-28T11:58:14.988Z,523.12
2022-10-28T11:59:11.911Z,573.75
2022-10-28T12:00:11.876Z,540.00
2022-10-28T12:01:12.003Z,1113.75
2022-10-28T12:02:11.980Z,1080.00
2022-10-28T12:03:11.935Z,950.62
2022-10-28T12:04:14.306Z,652.50
2022-10-28T12:05:26.568Z,1175.62
2022-10-28T12:06:11.815Z,658.12
2022-10-28T12:07:11.803Z,618.75
2022-10-28T12:08:11.828Z,652.50
2022-10-28T12:09:11.848Z,888.75
2022-10-28T12:10:11.818Z,871.88
2022-10-28T12:11:11.766Z,652.50
2022-10-28T12:12:11.780Z,601.88
2022-10-28T12:13:13.892Z,556.88
2022-10-28T12:14:19.836Z,534.38
2022-10-28T12:15:11.719Z,534.38
2022-10-28T12:16:11.713Z,551.25
2022-10-28T12:17:11.696Z,573.75
2022-10-28T12:18:11.697Z,579.38
2022-10-28T12:19:11.704Z,562.50
2022-10-28T12:20:11.718Z,551.25
2022-10-28T12:21:11.786Z,540.00
2022-10-28T12:23:21.622Z,562.50
2022-10-28T12:24:11.647Z,596.25
2022-10-28T12:25:11.690Z,883.12
2022-10-28T12:26:11.607Z,511.88
2022-10-28T12:27:15.360Z,506.25
2022-10-28T12:28:12.665Z,630.00
2022-10-28T12:29:11.575Z,686.25
2022-10-28T12:30:11.733Z,675.00
2022-10-28T12:31:12.684Z,641.25
2022-10-28T12:32:21.622Z,635.62
2022-10-28T12:33:11.524Z,697.50
2022-10-28T12:34:11.516Z,939.38
2022-10-28T12:35:11.538Z,1170.00
2022-10-28T12:36:11.496Z,1215.00
2022-10-28T12:37:11.495Z,1068.75
2022-10-28T12:38:11.475Z,1018.12
2022-10-28T12:39:11.485Z,1125.00
2022-10-28T12:40:15.983Z,1147.50
2022-10-28T12:41:11.437Z,1136.25
2022-10-28T12:42:11.436Z,1113.75
2022-10-28T12:43:11.420Z,1012.50
2022-10-28T12:44:11.425Z,781.88
2022-10-28T12:45:11.452Z,742.50
2022-10-28T12:46:11.398Z,956.25
2022-10-28T12:47:11.381Z,1051.88
2022-10-28T12:48:11.850Z,1068.75
2022-10-28T12:49:12.071Z,1068.75
2022-10-28T12:50:11.431Z,1035.00
2022-10-28T12:51:11.331Z,967.50
2022-10-28T12:52:11.513Z,748.12
2022-10-28T12:53:11.313Z,568.12
2022-10-28T12:54:11.305Z,382.50
2022-10-28T12:55:11.422Z,489.38
2022-10-28T12:56:11.352Z,551.25
2022-10-28T12:57:12.130Z,455.62